Terminal Aerodrome Forecast
Issued by NWS Charleston, WV

Current Version | Previous Version | Graphics & Text | Print | Product List | Glossary On
Versions: 1 2 3 4 5 6 7 8 9 10 11 12 13 14 15 16 17 18 19 20 21 22 23 24 25 26 27 28 29 30 31 32 33 34 35 36 37 38 39
000
FTUS41 KRLX 290751 AAA
TAFHTS
TAF AMD
KHTS 290751Z 2908/3006 00000KT 6SM BR OVC003
      TEMPO 2909/2913 3/4SM BR OVC002
     FM291300 00000KT 3SM BR BKN005
     FM291500 00000KT 6SM BR HZ BKN015
     FM291800 20004KT P6SM BKN035
     FM300000 00000KT P6SM SCT050
     FM300400 00000KT 5SM BR BKN050
     FM300500 00000KT 2SM BR BKN040=

USA.gov is the U.S. government's official web portal to all federal, state and local government web resources and services.